createdAt,value
2022-11-01T00:00:38.649Z,7.55
2022-11-01T00:03:24.188Z,8.53
2022-11-01T00:06:09.664Z,8.41
2022-11-01T00:08:55.138Z,8.53
2022-11-01T00:11:41.004Z,8.47
2022-11-01T00:14:26.394Z,7.58
2022-11-01T00:17:12.103Z,7.39
2022-11-01T00:19:57.821Z,7.23
2022-11-01T00:22:43.216Z,8.21
2022-11-01T00:25:29.082Z,8.29
2022-11-01T00:28:14.745Z,8.23
2022-11-01T00:31:00.646Z,7.09
2022-11-01T00:33:46.738Z,7.92
2022-11-01T00:36:36.426Z,8.16
2022-11-01T00:39:21.756Z,8.13
2022-11-01T00:42:07.684Z,8.12
2022-11-01T00:44:53.977Z,6.69
2022-11-01T00:47:39.454Z,8.23
2022-11-01T00:50:25.233Z,7.87
2022-11-01T00:53:12.356Z,7.67
2022-11-01T00:56:02.175Z,8.21
2022-11-01T00:58:47.594Z,8.17
2022-11-01T01:01:32.860Z,7.52
2022-11-01T01:04:18.383Z,6.91
2022-11-01T01:07:03.536Z,8.17
2022-11-01T01:09:49.002Z,8.18
2022-11-01T01:12:34.381Z,7.30
2022-11-01T01:15:19.807Z,7.54
2022-11-01T01:18:06.076Z,8.14
2022-11-01T01:20:51.522Z,7.06
2022-11-01T01:23:37.365Z,6.84
2022-11-01T01:26:22.528Z,7.98
2022-11-01T01:29:07.658Z,8.08
2022-11-01T01:31:53.119Z,6.85
2022-11-01T01:34:38.328Z,6.78
2022-11-01T01:37:23.650Z,7.76
2022-11-01T01:40:10.019Z,6.79
2022-11-01T01:42:55.488Z,6.77
2022-11-01T01:45:41.679Z,7.18
2022-11-01T01:48:27.755Z,7.54
2022-11-01T01:51:17.989Z,7.73
2022-11-01T01:54:03.399Z,8.02
2022-11-01T01:56:49.406Z,7.33
2022-11-01T01:59:36.946Z,6.67
2022-11-01T02:02:22.902Z,7.16
2022-11-01T02:05:17.123Z,7.86
2022-11-01T02:08:04.827Z,7.73
2022-11-01T02:10:50.440Z,6.12
2022-11-01T02:13:36.388Z,7.50
2022-11-01T02:16:40.630Z,6.13
2022-11-01T02:20:02.044Z,7.34
2022-11-01T02:22:59.717Z,7.37
2022-11-01T02:26:06.952Z,7.38
2022-11-01T02:29:03.208Z,7.37
2022-11-01T02:32:21.660Z,7.39
2022-11-01T02:35:16.222Z,7.21
2022-11-01T02:38:07.575Z,5.99
2022-11-01T02:41:16.134Z,7.21
2022-11-01T02:44:08.004Z,7.10
2022-11-01T02:47:01.588Z,5.86
2022-11-01T02:49:59.845Z,5.41
2022-11-01T02:52:46.217Z,6.51
2022-11-01T02:55:33.878Z,6.13
2022-11-01T02:58:23.725Z,6.49
2022-11-01T03:01:15.299Z,7.27
2022-11-01T03:04:02.255Z,6.64
2022-11-01T03:06:55.014Z,7.04
2022-11-01T03:09:41.598Z,6.97
2022-11-01T03:12:32.976Z,6.97
2022-11-01T03:15:26.619Z,6.17
2022-11-01T03:18:20.097Z,5.48
2022-11-01T03:21:16.159Z,6.53
2022-11-01T03:24:17.306Z,6.74
2022-11-01T03:27:27.428Z,5.48
2022-11-01T03:30:14.833Z,6.67
2022-11-01T03:33:00.792Z,6.40
2022-11-01T03:35:49.614Z,6.01
2022-11-01T03:38:39.718Z,6.29
2022-11-01T03:41:27.610Z,5.28
2022-11-01T03:44:14.061Z,6.49
2022-11-01T03:46:59.913Z,5.16
2022-11-01T03:49:45.037Z,5.24
2022-11-01T03:52:30.522Z,5.07
2022-11-01T03:55:18.274Z,6.35
2022-11-01T03:58:03.786Z,6.21
2022-11-01T04:00:50.833Z,5.67
2022-11-01T04:03:36.352Z,5.51
2022-11-01T04:06:21.907Z,6.25
2022-11-01T04:09:07.926Z,5.59
2022-11-01T04:11:53.454Z,6.00
2022-11-01T04:14:57.292Z,6.39
2022-11-01T04:18:01.326Z,6.39
2022-11-01T04:20:46.862Z,6.45
2022-11-01T04:23:33.189Z,6.39
2022-11-01T04:26:21.471Z,6.36
2022-11-01T04:29:06.735Z,5.93
2022-11-01T04:31:51.957Z,6.48
2022-11-01T04:34:43.496Z,5.41
2022-11-01T04:37:29.301Z,5.41
2022-11-01T04:40:15.617Z,5.88
2022-11-01T04:43:01.663Z,6.31
2022-11-01T04:45:54.337Z,6.89
2022-11-01T04:48:39.752Z,6.88
2022-11-01T04:51:25.065Z,5.66
2022-11-01T04:54:10.490Z,6.96
2022-11-01T04:56:55.740Z,6.20
2022-11-01T04:59:41.198Z,5.71
2022-11-01T05:02:26.679Z,7.01
2022-11-01T05:05:12.767Z,7.02
2022-11-01T05:08:07.463Z,6.71
2022-11-01T05:10:55.495Z,7.03
2022-11-01T05:13:41.217Z,6.91
2022-11-01T05:16:26.909Z,6.34
2022-11-01T05:19:12.337Z,7.04
2022-11-01T05:21:59.877Z,7.01
2022-11-01T05:24:45.316Z,6.91
2022-11-01T05:27:30.909Z,5.58
2022-11-01T05:30:16.734Z,6.80
2022-11-01T05:33:04.225Z,5.63
2022-11-01T05:35:49.689Z,6.87
2022-11-01T05:38:36.602Z,6.64
2022-11-01T05:41:22.201Z,5.77
2022-11-01T05:44:07.498Z,6.24
2022-11-01T05:46:53.155Z,5.34
2022-11-01T05:49:38.587Z,6.01
2022-11-01T05:52:24.120Z,6.92
2022-11-01T05:55:10.077Z,6.81
2022-11-01T05:57:59.219Z,6.64
2022-11-01T06:00:44.486Z,6.74
2022-11-01T06:03:31.462Z,6.96
2022-11-01T06:06:17.065Z,7.25
2022-11-01T06:09:03.349Z,7.31
2022-11-01T06:11:49.941Z,6.11
2022-11-01T06:14:38.847Z,6.21
2022-11-01T06:17:25.014Z,7.56
2022-11-01T06:20:11.813Z,7.81
2022-11-01T06:22:58.727Z,7.88
2022-11-01T06:25:44.087Z,7.80
2022-11-01T06:28:29.715Z,8.24
2022-11-01T06:31:14.988Z,8.46
2022-11-01T06:34:00.424Z,7.38
2022-11-01T06:36:46.010Z,8.85
2022-11-01T06:39:31.458Z,8.38
2022-11-01T06:42:17.066Z,8.93
2022-11-01T06:45:02.280Z,9.39
2022-11-01T06:47:48.862Z,9.67
2022-11-01T06:50:35.271Z,9.41
2022-11-01T06:53:21.899Z,9.71
2022-11-01T06:56:07.584Z,10.14
2022-11-01T06:58:53.436Z,9.08
2022-11-01T07:01:38.940Z,10.05
2022-11-01T07:04:27.066Z,10.22
2022-11-01T07:07:12.822Z,10.59
2022-11-01T07:09:58.103Z,10.74
2022-11-01T07:12:43.578Z,10.87
2022-11-01T07:15:29.849Z,10.81
2022-11-01T07:18:15.219Z,11.13
2022-11-01T07:21:04.994Z,10.97
2022-11-01T07:23:52.677Z,11.09
2022-11-01T07:26:38.324Z,11.37
2022-11-01T07:29:23.835Z,11.42
2022-11-01T07:32:09.258Z,11.31
2022-11-01T07:34:54.662Z,11.63
2022-11-01T07:37:41.356Z,11.68
2022-11-01T07:40:28.072Z,11.67
2022-11-01T07:43:14.409Z,11.78
2022-11-01T07:46:07.455Z,11.26
2022-11-01T07:48:53.172Z,11.80
2022-11-01T07:51:38.681Z,12.01
2022-11-01T07:54:28.368Z,11.08
2022-11-01T07:57:13.770Z,11.00
2022-11-01T07:59:59.475Z,12.06
2022-11-01T08:02:44.994Z,12.18
2022-11-01T08:05:30.606Z,12.00
2022-11-01T08:08:16.632Z,12.25
2022-11-01T08:11:03.147Z,11.30
2022-11-01T08:13:48.820Z,12.53
2022-11-01T08:16:34.270Z,11.86
2022-11-01T08:19:19.555Z,12.44
2022-11-01T08:22:05.431Z,12.60
2022-11-01T08:24:51.187Z,11.72
2022-11-01T08:27:36.533Z,12.96
2022-11-01T08:30:22.789Z,11.87
2022-11-01T08:33:08.741Z,13.12
2022-11-01T08:35:55.323Z,13.20
2022-11-01T08:38:41.837Z,13.16
2022-11-01T08:41:28.467Z,13.35
2022-11-01T08:44:14.015Z,13.47
2022-11-01T08:47:01.650Z,13.58
2022-11-01T08:49:47.260Z,12.70
2022-11-01T08:52:33.313Z,13.71
2022-11-01T08:55:18.948Z,13.69
2022-11-01T08:58:05.001Z,13.68
2022-11-01T09:00:51.133Z,13.96
2022-11-01T09:03:36.839Z,14.00
2022-11-01T09:06:22.328Z,12.98
2022-11-01T09:09:08.240Z,14.14
2022-11-01T09:11:53.869Z,13.95
2022-11-01T09:14:40.285Z,13.96
2022-11-01T09:17:25.920Z,14.42
2022-11-01T09:20:11.842Z,14.41
2022-11-01T09:22:57.766Z,14.61
2022-11-01T09:25:43.686Z,14.46
2022-11-01T09:28:33.699Z,13.13
2022-11-01T09:31:21.610Z,14.09
2022-11-01T09:34:07.805Z,14.69
2022-11-01T09:36:54.196Z,14.93
2022-11-01T09:39:39.600Z,14.95
2022-11-01T09:42:34.427Z,15.03
2022-11-01T09:45:23.467Z,15.13
2022-11-01T09:48:14.581Z,14.11
2022-11-01T09:51:04.913Z,15.29
2022-11-01T09:53:56.326Z,15.36
2022-11-01T09:56:51.306Z,15.44
2022-11-01T09:59:49.337Z,14.68
2022-11-01T10:02:50.148Z,15.60
2022-11-01T10:05:48.519Z,14.79
2022-11-01T10:08:49.385Z,15.77
2022-11-01T10:12:04.799Z,15.85
2022-11-01T10:15:02.377Z,15.95
2022-11-01T10:17:52.091Z,16.02
2022-11-01T10:20:40.619Z,15.85
2022-11-01T10:23:53.106Z,16.17
2022-11-01T10:26:44.405Z,15.19
2022-11-01T10:29:52.527Z,15.87
2022-11-01T10:32:49.815Z,15.41
2022-11-01T10:35:43.474Z,15.46
2022-11-01T10:38:41.902Z,16.56
2022-11-01T10:41:47.212Z,15.99
2022-11-01T10:44:38.571Z,16.62
2022-11-01T10:47:24.915Z,16.24
2022-11-01T10:50:14.486Z,15.74
2022-11-01T10:53:08.198Z,16.79
2022-11-01T10:55:58.951Z,16.83
2022-11-01T10:58:58.534Z,15.81
2022-11-01T11:01:45.200Z,16.90
2022-11-01T11:04:31.094Z,16.12
2022-11-01T11:07:21.480Z,16.65
2022-11-01T11:10:23.849Z,16.96
2022-11-01T11:13:10.687Z,15.78
2022-11-01T11:16:02.394Z,16.85
2022-11-01T11:19:01.426Z,16.77
2022-11-01T11:21:50.009Z,17.16
2022-11-01T11:24:38.761Z,17.20
2022-11-01T11:27:29.100Z,17.26
2022-11-01T11:30:27.668Z,16.87
2022-11-01T11:33:18.188Z,17.35
2022-11-01T11:36:04.477Z,17.27
2022-11-01T11:38:51.463Z,17.24
2022-11-01T11:41:38.666Z,17.50
2022-11-01T11:44:45.555Z,17.57
2022-11-01T11:47:36.313Z,17.23
2022-11-01T11:50:23.020Z,17.65
2022-11-01T11:53:20.231Z,17.64
2022-11-01T11:56:08.958Z,17.59
2022-11-01T11:58:56.479Z,17.75
2022-11-01T12:01:42.711Z,16.86
2022-11-01T12:04:45.596Z,17.25
2022-11-01T12:07:34.873Z,17.78
2022-11-01T12:10:45.544Z,17.95
2022-11-01T12:13:43.426Z,18.01
2022-11-01T12:19:27.546Z,18.06
2022-11-01T12:22:13.322Z,17.85
2022-11-01T12:25:05.610Z,18.11
2022-11-01T12:28:14.112Z,17.35
2022-11-01T12:31:06.381Z,17.33
2022-11-01T12:33:51.552Z,18.15
2022-11-01T12:36:50.627Z,18.14
2022-11-01T12:40:02.481Z,17.69
2022-11-01T12:42:52.123Z,18.17
2022-11-01T12:45:57.871Z,18.17
2022-11-01T12:48:47.813Z,18.19
2022-11-01T12:51:41.803Z,17.74
2022-11-01T12:54:29.677Z,18.16
2022-11-01T12:57:18.262Z,17.95
2022-11-01T13:00:05.822Z,18.13
2022-11-01T13:02:54.173Z,18.12
2022-11-01T13:06:08.857Z,18.09
2022-11-01T13:09:18.473Z,18.08
2022-11-01T13:12:35.124Z,18.07
2022-11-01T13:15:29.718Z,18.07
2022-11-01T13:18:42.221Z,17.49
2022-11-01T13:21:34.393Z,18.08
2022-11-01T13:24:34.951Z,18.09
2022-11-01T13:27:29.129Z,18.11
2022-11-01T13:30:19.170Z,17.83
2022-11-01T13:33:30.958Z,18.12
2022-11-01T13:36:35.638Z,18.09
2022-11-01T13:39:40.571Z,17.72
2022-11-01T13:42:38.832Z,17.72
2022-11-01T13:45:43.545Z,18.07
2022-11-01T13:48:41.453Z,18.06
2022-11-01T13:51:30.156Z,18.00
2022-11-01T13:54:27.490Z,17.98
2022-11-01T13:57:19.120Z,17.98
2022-11-01T14:00:09.439Z,17.84
2022-11-01T14:02:59.263Z,17.17
2022-11-01T14:05:46.525Z,17.46
2022-11-01T14:08:37.389Z,17.73
2022-11-01T14:11:41.554Z,17.85
2022-11-01T14:14:30.264Z,17.84
2022-11-01T14:17:18.824Z,17.83
2022-11-01T14:20:06.530Z,17.79
2022-11-01T14:22:53.498Z,16.97
2022-11-01T14:25:39.085Z,17.73
2022-11-01T14:28:24.767Z,17.38
2022-11-01T14:31:15.727Z,17.24
2022-11-01T14:34:06.167Z,17.60
2022-11-01T14:36:55.222Z,17.52
2022-11-01T14:39:55.519Z,17.47
2022-11-01T14:42:44.754Z,17.41
2022-11-01T14:45:45.721Z,17.32
2022-11-01T14:48:40.042Z,17.24
2022-11-01T14:51:31.542Z,17.16
2022-11-01T14:55:24.953Z,17.02
2022-11-01T14:58:22.479Z,16.93
2022-11-01T15:01:13.731Z,16.91
2022-11-01T15:04:01.098Z,16.74
2022-11-01T15:06:47.324Z,15.75
2022-11-01T15:09:33.276Z,16.58
2022-11-01T15:12:19.268Z,16.55
2022-11-01T15:15:05.468Z,16.55
2022-11-01T15:18:06.649Z,15.69
2022-11-01T15:20:56.324Z,15.42
2022-11-01T15:23:45.633Z,16.46
2022-11-01T15:26:33.429Z,15.40
2022-11-01T15:29:22.201Z,16.48
2022-11-01T15:32:26.564Z,16.33
2022-11-01T15:35:26.191Z,15.52
2022-11-01T15:38:20.588Z,15.47
2022-11-01T15:41:26.039Z,15.41
2022-11-01T15:44:26.933Z,15.40
2022-11-01T15:47:18.925Z,15.89
2022-11-01T15:50:06.405Z,16.41
2022-11-01T15:52:53.393Z,16.35
2022-11-01T15:55:44.907Z,16.12
2022-11-01T15:58:53.051Z,16.32
2022-11-01T16:01:39.804Z,16.16
2022-11-01T16:04:26.928Z,15.80
2022-11-01T16:07:17.007Z,14.98
2022-11-01T16:10:05.634Z,15.90
2022-11-01T16:12:53.023Z,15.25
2022-11-01T16:15:38.507Z,15.66
2022-11-01T16:18:25.748Z,15.54
2022-11-01T16:21:21.021Z,15.58
2022-11-01T16:24:15.720Z,14.44
2022-11-01T16:27:06.239Z,15.28
2022-11-01T16:29:53.077Z,15.25
2022-11-01T16:32:39.075Z,15.21
2022-11-01T16:35:34.409Z,14.93
2022-11-01T16:38:36.007Z,15.15
2022-11-01T16:41:24.270Z,15.03
2022-11-01T16:44:16.113Z,14.73
2022-11-01T16:47:02.021Z,14.49
2022-11-01T16:49:54.404Z,14.06
2022-11-01T16:52:40.411Z,14.17
2022-11-01T16:55:28.468Z,13.04
2022-11-01T16:58:20.411Z,14.12
2022-11-01T17:01:06.663Z,13.72
2022-11-01T17:03:53.209Z,14.03
2022-11-01T17:06:39.547Z,13.79
2022-11-01T17:09:25.381Z,13.96
2022-11-01T17:12:12.808Z,13.85
2022-11-01T17:14:59.494Z,13.70
2022-11-01T17:17:48.599Z,13.07
2022-11-01T17:20:36.708Z,13.43
2022-11-01T17:23:24.257Z,12.22
2022-11-01T17:26:15.842Z,13.26
2022-11-01T17:29:01.711Z,12.17
2022-11-01T17:31:47.050Z,13.12
2022-11-01T17:37:25.906Z,12.89
2022-11-01T17:40:20.567Z,13.43
2022-11-01T17:43:06.082Z,13.49
2022-11-01T17:45:52.012Z,13.73
2022-11-01T17:48:37.835Z,12.72
2022-11-01T17:51:23.207Z,11.80
2022-11-01T17:54:09.857Z,13.71
2022-11-01T17:56:55.615Z,12.93
2022-11-01T17:59:41.051Z,14.02
2022-11-01T18:02:26.937Z,12.81
2022-11-01T18:05:13.864Z,14.05
2022-11-01T18:08:03.054Z,14.08
2022-11-01T18:11:01.240Z,14.13
2022-11-01T18:14:10.393Z,13.08
2022-11-01T18:17:16.223Z,13.90
2022-11-01T18:20:30.219Z,14.14
2022-11-01T18:23:19.704Z,13.86
2022-11-01T18:26:10.811Z,13.27
2022-11-01T18:29:17.645Z,13.98
2022-11-01T18:32:16.939Z,14.16
2022-11-01T18:35:17.757Z,14.10
2022-11-01T18:38:13.507Z,14.03
2022-11-01T18:41:04.878Z,13.94
2022-11-01T18:43:53.852Z,13.75
2022-11-01T18:46:44.470Z,13.26
2022-11-01T18:49:30.917Z,13.61
2022-11-01T18:52:19.485Z,13.53
2022-11-01T18:55:13.893Z,13.41
2022-11-01T18:58:11.363Z,12.22
2022-11-01T19:01:13.439Z,13.06
2022-11-01T19:04:22.251Z,13.29
2022-11-01T19:07:20.197Z,13.31
2022-11-01T19:10:18.709Z,13.30
2022-11-01T19:13:12.814Z,12.60
2022-11-01T19:16:02.202Z,13.27
2022-11-01T19:18:50.837Z,13.32
2022-11-01T19:21:37.056Z,13.32
2022-11-01T19:24:34.993Z,13.28
2022-11-01T19:27:23.868Z,13.25
2022-11-01T19:30:37.337Z,13.18
2022-11-01T19:33:33.695Z,13.05
2022-11-01T19:36:23.667Z,13.10
2022-11-01T19:39:20.538Z,12.56
2022-11-01T19:42:12.897Z,13.05
2022-11-01T19:45:00.301Z,13.04
2022-11-01T19:47:50.947Z,13.02
2022-11-01T19:50:41.646Z,13.03
2022-11-01T19:53:34.019Z,12.91
2022-11-01T19:56:21.222Z,12.43
2022-11-01T19:59:15.281Z,12.78
2022-11-01T20:02:05.040Z,11.57
2022-11-01T20:05:00.009Z,12.26
2022-11-01T20:07:45.666Z,12.46
2022-11-01T20:10:31.508Z,11.23
2022-11-01T20:13:18.458Z,12.38
2022-11-01T20:16:03.875Z,11.78
2022-11-01T20:18:49.876Z,12.21
2022-11-01T20:21:35.354Z,12.20
2022-11-01T20:24:20.739Z,11.01
2022-11-01T20:27:06.362Z,12.12
2022-11-01T20:29:52.229Z,11.94
2022-11-01T20:32:38.102Z,12.01
2022-11-01T20:35:23.752Z,11.93
2022-11-01T20:41:08.964Z,11.83
2022-11-01T20:43:54.727Z,11.94
2022-11-01T20:46:40.233Z,11.11
2022-11-01T20:49:25.982Z,12.09
2022-11-01T20:52:38.110Z,12.16
2022-11-01T20:55:21.019Z,12.22
2022-11-01T20:58:07.695Z,11.25
2022-11-01T21:00:54.540Z,12.37
2022-11-01T21:03:40.252Z,12.42
2022-11-01T21:06:31.990Z,12.37
2022-11-01T21:09:30.236Z,12.39
2022-11-01T21:12:28.140Z,11.58
2022-11-01T21:15:26.277Z,12.20
2022-11-01T21:18:12.365Z,12.08
2022-11-01T21:20:59.722Z,11.95
2022-11-01T21:23:46.591Z,11.89
2022-11-01T21:26:35.997Z,11.53
2022-11-01T21:29:27.667Z,11.81
2022-11-01T21:32:34.610Z,11.71
2022-11-01T21:35:20.004Z,11.74
2022-11-01T21:38:29.103Z,11.67
2022-11-01T21:41:21.141Z,11.44
2022-11-01T21:44:16.258Z,11.62
2022-11-01T21:47:14.052Z,10.64
2022-11-01T21:49:59.587Z,10.40
2022-11-01T21:52:45.838Z,11.23
2022-11-01T21:55:31.494Z,10.47
2022-11-01T21:58:16.720Z,11.29
2022-11-01T22:01:02.296Z,11.52
2022-11-01T22:03:47.971Z,11.11
2022-11-01T22:06:33.387Z,11.38
2022-11-01T22:09:19.744Z,11.49
2022-11-01T22:12:06.818Z,11.30
2022-11-01T22:14:52.559Z,11.49
2022-11-01T22:17:38.197Z,11.23
2022-11-01T22:20:23.614Z,10.30
2022-11-01T22:23:09.536Z,11.17
2022-11-01T22:25:54.878Z,11.46
2022-11-01T22:28:40.314Z,10.31
2022-11-01T22:31:26.145Z,11.50
2022-11-01T22:34:11.819Z,10.87
2022-11-01T22:36:57.559Z,10.42
2022-11-01T22:39:43.843Z,10.39
2022-11-01T22:42:31.364Z,11.58
2022-11-01T22:45:18.595Z,10.79
2022-11-01T22:48:14.495Z,10.54
2022-11-01T22:51:02.711Z,10.66
2022-11-01T22:53:49.201Z,10.71
2022-11-01T22:56:34.676Z,11.00
2022-11-01T22:59:20.167Z,12.00
2022-11-01T23:02:37.744Z,12.11
2022-11-01T23:05:25.328Z,10.82
2022-11-01T23:08:25.978Z,12.21
2022-11-01T23:11:44.805Z,11.10
2022-11-01T23:14:37.762Z,12.10
2022-11-01T23:17:31.399Z,11.08
2022-11-01T23:20:17.353Z,11.15
2022-11-01T23:23:04.684Z,12.23
2022-11-01T23:25:52.328Z,12.38
2022-11-01T23:28:42.066Z,12.11
2022-11-01T23:31:29.073Z,12.00
2022-11-01T23:34:14.598Z,12.45
2022-11-01T23:37:00.088Z,12.47
2022-11-01T23:39:45.944Z,11.80
2022-11-01T23:42:31.898Z,11.36
2022-11-01T23:45:27.971Z,11.93
2022-11-01T23:48:14.149Z,12.58
2022-11-01T23:50:59.719Z,11.66
2022-11-01T23:53:48.762Z,12.62
2022-11-01T23:56:34.149Z,12.00
2022-11-01T23:59:19.625Z,11.50
